Time;durP1;ratioP1;P1;durP2;ratioP2;P2;SDS_P1;SDS_P2;PMS_P1;PMS_P2;Temp;Humidity;BMP_temperature;BMP_pressure;BME280_temperature;BME280_humidity;BME280_pressure;Samples;Min_cycle;Max_cycle;Signal;HPM_P1;HPM_P2
2022/05/29 00:02:16;;;;;;;17.08;5.97;;;9.10;96.70;;;;;;5102931;28;20041;-76
2022/05/29 00:04:41;;;;;;;16.25;6.03;;;9.10;96.70;;;;;;5104685;28;20481;-76
2022/05/29 00:07:11;;;;;;;23.85;5.70;;;9.20;96.80;;;;;;5102186;28;20085;-76
2022/05/29 00:09:40;;;;;;;30.60;5.82;;;9.10;96.60;;;;;;5108561;28;20034;-76
2022/05/29 00:12:08;;;;;;;19.02;5.82;;;9.10;96.60;;;;;;5094046;28;20032;-76
2022/05/29 00:14:35;;;;;;;21.58;6.25;;;9.10;96.40;;;;;;5103097;28;20490;-76
2022/05/29 00:17:01;;;;;;;17.42;5.20;;;9.10;96.50;;;;;;5104036;28;20088;-76
2022/05/29 00:19:26;;;;;;;14.05;4.85;;;9.10;96.40;;;;;;5096862;28;20425;-76
2022/05/29 00:21:53;;;;;;;23.30;5.82;;;9.10;96.10;;;;;;5096530;28;20031;-76
2022/05/29 00:24:18;;;;;;;19.10;4.72;;;9.00;95.90;;;;;;5102098;28;20031;-76
2022/05/29 00:26:44;;;;;;;21.27;4.97;;;9.00;95.90;;;;;;5108213;28;20032;-76
2022/05/29 00:29:10;;;;;;;16.45;4.82;;;9.10;95.80;;;;;;5108738;28;20201;-76
2022/05/29 00:31:36;;;;;;;21.50;4.60;;;9.10;95.80;;;;;;5097385;28;20066;-76
2022/05/29 00:34:02;;;;;;;13.73;4.65;;;9.10;95.50;;;;;;5118754;27;20027;-76
2022/05/29 00:36:33;;;;;;;19.23;4.82;;;9.10;95.50;;;;;;5112903;27;20093;-76
2022/05/29 00:38:59;;;;;;;18.67;5.55;;;9.10;95.30;;;;;;5106579;28;20526;-76
2022/05/29 00:41:31;;;;;;;17.00;5.78;;;9.10;95.30;;;;;;5099614;28;20040;-76
2022/05/29 00:44:27;;;;;;;24.40;6.18;;;9.10;95.30;;;;;;5108841;28;20030;-76
2022/05/29 00:47:09;;;;;;;15.05;4.35;;;9.10;95.10;;;;;;5106814;28;20042;-76
2022/05/29 00:49:36;;;;;;;13.52;4.05;;;9.00;95.20;;;;;;5095147;28;20510;-76
2022/05/29 00:52:04;;;;;;;22.10;4.68;;;9.00;95.30;;;;;;5108225;28;20265;-76
2022/05/29 00:54:37;;;;;;;16.65;5.13;;;8.90;95.40;;;;;;5106205;28;20055;-76
2022/05/29 00:57:03;;;;;;;22.52;4.93;;;8.90;95.30;;;;;;5095651;28;20063;-76
2022/05/29 00:59:32;;;;;;;18.65;4.82;;;8.90;95.40;;;;;;5108029;28;20035;-76
2022/05/29 01:02:02;;;;;;;15.05;4.20;;;8.90;95.50;;;;;;5105512;28;20390;-76
2022/05/29 01:04:29;;;;;;;18.90;4.88;;;8.90;95.50;;;;;;5108812;28;20042;-76
2022/05/29 01:06:55;;;;;;;19.63;4.95;;;8.90;95.60;;;;;;5101242;28;20385;-76
2022/05/29 01:09:20;;;;;;;16.98;4.95;;;8.80;95.50;;;;;;5108595;28;20020;-76
2022/05/29 01:12:05;;;;;;;25.83;6.05;;;8.90;95.40;;;;;;5097826;28;20470;-76
2022/05/29 01:14:52;;;;;;;17.85;4.20;;;8.90;95.50;;;;;;5103961;28;20108;-76
2022/05/29 01:17:32;;;;;;;12.30;4.40;;;8.80;95.40;;;;;;5101716;28;20108;-76
2022/05/29 01:20:09;;;;;;;17.55;4.72;;;8.80;95.40;;;;;;5107564;28;20134;-76
2022/05/29 01:23:22;;;;;;;17.70;4.95;;;8.80;95.50;;;;;;5106558;28;20419;-76
2022/05/29 01:25:56;;;;;;;12.95;4.18;;;8.90;95.60;;;;;;5105724;28;20044;-76
2022/05/29 01:28:44;;;;;;;20.60;4.60;;;8.80;95.70;;;;;;5107033;28;20100;-76
2022/05/29 01:31:21;;;;;;;17.13;4.90;;;8.70;95.80;;;;;;5104233;28;20361;-76
2022/05/29 01:34:12;;;;;;;18.17;5.20;;;8.80;95.80;;;;;;5107245;27;20084;-76
2022/05/29 01:37:05;;;;;;;19.30;4.63;;;8.70;95.90;;;;;;5107572;28;20107;-76
2022/05/29 01:39:38;;;;;;;17.92;4.75;;;8.70;95.80;;;;;;5102958;28;20016;-76
2022/05/29 01:42:14;;;;;;;14.57;4.72;;;8.60;95.90;;;;;;5103612;28;20136;-76
2022/05/29 01:44:56;;;;;;;18.67;4.93;;;8.60;95.90;;;;;;5106252;28;20039;-76
2022/05/29 01:47:31;;;;;;;15.13;4.55;;;8.60;95.80;;;;;;5104485;28;20039;-75
2022/05/29 01:50:02;;;;;;;13.60;4.68;;;8.60;95.80;;;;;;5096347;28;20415;-75
2022/05/29 01:52:32;;;;;;;;;;;8.60;95.80;;;;;;5108012;28;20143;-75
2022/05/29 01:55:14;;;;;;;13.48;4.10;;;8.60;95.80;;;;;;5093195;28;19918;-75
2022/05/29 01:57:44;;;;;;;14.18;3.83;;;8.60;95.80;;;;;;5093919;28;20042;-75
2022/05/29 02:00:17;;;;;;;19.98;4.53;;;8.60;95.80;;;;;;5094615;28;20027;-75
2022/05/29 02:02:48;;;;;;;18.13;4.78;;;8.60;95.90;;;;;;5100940;28;20035;-76
2022/05/29 02:05:21;;;;;;;13.55;4.00;;;8.60;95.90;;;;;;5105264;28;20034;-75
2022/05/29 02:07:52;;;;;;;15.60;4.05;;;8.60;95.80;;;;;;5098562;28;20100;-75
2022/05/29 02:10:30;;;;;;;18.00;3.97;;;8.60;95.80;;;;;;5106143;28;20402;-75
2022/05/29 02:13:18;;;;;;;10.68;3.75;;;8.60;95.90;;;;;;5097714;28;20039;-75
2022/05/29 02:15:46;;;;;;;18.88;4.13;;;8.60;95.80;;;;;;5107207;28;20296;-75
2022/05/29 02:18:29;;;;;;;14.70;3.70;;;8.60;95.80;;;;;;5107297;28;20039;-76
2022/05/29 02:20:59;;;;;;;18.13;4.10;;;8.50;95.70;;;;;;5107216;28;20073;-75
2022/05/29 02:23:41;;;;;;;16.17;4.70;;;8.50;95.70;;;;;;5099966;28;20039;-75
2022/05/29 02:26:10;;;;;;;15.63;3.20;;;8.50;95.80;;;;;;5104775;28;20297;-75
2022/05/29 02:28:40;;;;;;;12.85;3.72;;;8.50;95.80;;;;;;5103913;28;20048;-75
2022/05/29 02:31:37;;;;;;;18.70;4.65;;;8.50;96.00;;;;;;5104099;28;20586;-75
2022/05/29 02:34:32;;;;;;;17.65;4.40;;;8.50;95.90;;;;;;5097358;28;20048;-75
2022/05/29 02:37:17;;;;;;;16.85;4.38;;;8.50;95.90;;;;;;5106535;28;20026;-75
2022/05/29 02:40:01;;;;;;;15.75;4.20;;;8.50;95.90;;;;;;5100559;28;20467;-75
2022/05/29 02:42:33;;;;;;;13.05;4.00;;;8.60;96.00;;;;;;5092740;28;20047;-75
2022/05/29 02:45:27;;;;;;;15.75;4.55;;;8.60;96.00;;;;;;5104437;28;20035;-75
2022/05/29 02:48:30;;;;;;;15.70;3.83;;;8.60;96.10;;;;;;5091789;28;20081;-75
2022/05/29 02:51:16;;;;;;;14.35;3.70;;;8.60;96.00;;;;;;5101732;28;20108;-75
2022/05/29 02:53:44;;;;;;;14.68;3.97;;;8.50;96.00;;;;;;5104526;28;20337;-76
2022/05/29 02:56:11;;;;;;;14.27;3.90;;;8.50;96.00;;;;;;5105372;28;20024;-75
2022/05/29 02:58:39;;;;;;;18.48;3.75;;;8.50;96.00;;;;;;5102753;28;20099;-75
2022/05/29 03:01:11;;;;;;;20.85;4.40;;;8.50;96.00;;;;;;5106952;28;20024;-75
2022/05/29 03:03:57;;;;;;;9.82;3.35;;;8.60;96.10;;;;;;5100752;28;20120;-75
2022/05/29 03:06:37;;;;;;;12.10;3.97;;;8.50;95.90;;;;;;5097798;28;20180;-75
2022/05/29 03:09:20;;;;;;;10.88;3.72;;;8.50;95.90;;;;;;5106202;28;20274;-75
2022/05/29 03:11:46;;;;;;;13.07;3.38;;;8.50;96.00;;;;;;5102263;28;20037;-75
2022/05/29 03:14:31;;;;;;;13.05;3.65;;;8.50;96.00;;;;;;5100371;28;20054;-75
2022/05/29 03:16:59;;;;;;;10.98;3.88;;;8.40;96.00;;;;;;5106035;28;20020;-77
2022/05/29 03:19:55;;;;;;;22.55;4.30;;;8.50;96.00;;;;;;5105682;28;20435;-75
2022/05/29 03:22:31;;;;;;;12.80;3.80;;;8.50;96.00;;;;;;5098207;28;20059;-75
2022/05/29 03:25:06;;;;;;;16.48;4.20;;;8.50;96.10;;;;;;5104812;28;20039;-75
2022/05/29 03:27:45;;;;;;;15.25;3.38;;;8.50;95.90;;;;;;5100671;28;20036;-75
2022/05/29 03:30:45;;;;;;;12.77;3.92;;;8.50;96.00;;;;;;5099582;28;20077;-74
2022/05/29 03:33:13;;;;;;;21.08;3.95;;;8.50;96.00;;;;;;5092601;28;20046;-75
2022/05/29 03:35:53;;;;;;;11.63;3.88;;;8.50;96.00;;;;;;5093410;28;20050;-75
2022/05/29 03:38:19;;;;;;;12.32;3.55;;;8.50;96.00;;;;;;5088128;28;20051;-75
2022/05/29 03:40:46;;;;;;;12.05;3.70;;;8.50;96.00;;;;;;5099510;28;20458;-74
2022/05/29 03:43:12;;;;;;;14.15;3.92;;;8.50;95.90;;;;;;5109921;28;20098;-75
2022/05/29 03:45:37;;;;;;;11.13;3.20;;;8.60;96.00;;;;;;5109868;28;20094;-75
2022/05/29 03:48:04;;;;;;;16.60;3.72;;;8.60;95.90;;;;;;5106642;28;20631;-74
2022/05/29 03:50:30;;;;;;;15.02;3.90;;;8.60;95.80;;;;;;5108511;28;20035;-75
2022/05/29 03:52:55;;;;;;;12.85;3.72;;;8.60;95.90;;;;;;5109189;28;20049;-75
2022/05/29 03:55:24;;;;;;;19.48;4.28;;;8.60;95.80;;;;;;5104743;28;20024;-75
2022/05/29 03:57:50;;;;;;;16.08;3.42;;;8.60;95.80;;;;;;5107375;28;20106;-75
2022/05/29 04:00:17;;;;;;;17.75;4.07;;;8.60;95.80;;;;;;5110024;28;20492;-75
2022/05/29 04:02:43;;;;;;;16.10;3.90;;;8.70;95.90;;;;;;5104692;28;20471;-75
2022/05/29 04:05:11;;;;;;;20.75;4.22;;;8.60;95.80;;;;;;5103916;28;20049;-75
2022/05/29 04:13:07;;;;;;;14.60;3.83;;;8.70;95.80;;;;;;5106311;28;20066;-74
2022/05/29 04:15:32;;;;;;;15.27;3.50;;;8.70;95.70;;;;;;5109157;28;20055;-75
2022/05/29 04:17:58;;;;;;;11.18;3.78;;;8.70;95.70;;;;;;5103827;28;20063;-70
2022/05/29 04:20:23;;;;;;;13.55;4.30;;;8.70;95.80;;;;;;5107903;28;20047;-71
2022/05/29 04:22:49;;;;;;;15.88;3.67;;;8.70;95.70;;;;;;5097367;28;20034;-71
2022/05/29 04:25:14;;;;;;;13.13;3.95;;;8.70;95.70;;;;;;5109143;28;20024;-71
2022/05/29 04:27:40;;;;;;;21.63;4.03;;;8.80;95.80;;;;;;5108828;28;20713;-71
2022/05/29 04:30:06;;;;;;;13.43;3.53;;;8.80;95.80;;;;;;5107518;28;20503;-71
2022/05/29 04:33:14;;;;;;;15.38;3.88;;;8.90;95.60;;;;;;5104614;27;20040;-71
2022/05/29 04:35:21;;;;;;;21.17;3.60;;;8.80;95.50;;;;;;5091926;28;20074;-71
2022/05/29 04:37:46;;;;;;;10.48;3.88;;;8.90;95.60;;;;;;5108252;28;20115;-71
2022/05/29 04:40:12;;;;;;;11.20;4.07;;;9.00;95.60;;;;;;5095190;28;20059;-71
2022/05/29 04:42:38;;;;;;;12.88;3.33;;;9.00;95.50;;;;;;5102920;28;20093;-71
2022/05/29 04:45:03;;;;;;;19.75;3.88;;;9.00;95.40;;;;;;5108324;28;20062;-71
2022/05/29 04:47:29;;;;;;;14.70;3.00;;;9.00;95.40;;;;;;5104718;28;20035;-71
2022/05/29 04:49:55;;;;;;;10.95;3.00;;;9.00;95.20;;;;;;5092826;28;20077;-71
2022/05/29 04:52:20;;;;;;;16.67;3.08;;;9.10;95.20;;;;;;5108465;28;20032;-72
2022/05/29 04:54:46;;;;;;;17.38;4.32;;;9.10;95.20;;;;;;5108121;28;20027;-72
2022/05/29 04:57:12;;;;;;;15.40;3.58;;;9.20;95.20;;;;;;5090646;28;20507;-72
2022/05/29 04:59:37;;;;;;;22.35;3.85;;;9.20;95.20;;;;;;5105574;28;20039;-72
2022/05/29 05:02:04;;;;;;;15.43;4.35;;;9.20;95.00;;;;;;5105770;28;20439;-72
2022/05/29 05:04:29;;;;;;;10.50;3.30;;;9.20;95.00;;;;;;5103422;28;20367;-72
2022/05/29 05:06:58;;;;;;;13.57;3.63;;;9.10;94.90;;;;;;5097635;28;20042;-72
2022/05/29 05:09:24;;;;;;;11.93;3.33;;;9.10;95.00;;;;;;5108268;28;20513;-72
2022/05/29 05:11:52;;;;;;;14.30;3.25;;;9.20;95.10;;;;;;5106767;28;20024;-72
2022/05/29 05:14:18;;;;;;;16.65;3.30;;;9.20;95.10;;;;;;5104965;28;20070;-72
2022/05/29 05:16:44;;;;;;;16.90;3.75;;;9.30;95.00;;;;;;5105712;28;20277;-72
2022/05/29 05:19:09;;;;;;;15.70;4.60;;;9.30;95.00;;;;;;5098126;28;20038;-72
2022/05/29 05:21:36;;;;;;;15.77;3.53;;;9.30;95.10;;;;;;5104655;28;20031;-72
2022/05/29 05:24:04;;;;;;;19.23;3.92;;;9.30;95.00;;;;;;5107888;28;20455;-72
2022/05/29 05:26:29;;;;;;;14.93;3.47;;;9.30;94.90;;;;;;5107490;28;20031;-72
2022/05/29 05:28:55;;;;;;;15.13;4.05;;;9.30;94.70;;;;;;5101729;28;20030;-74
2022/05/29 05:31:20;;;;;;;10.45;3.20;;;9.40;94.80;;;;;;5102419;28;20034;-74
2022/05/29 05:33:46;;;;;;;17.83;3.63;;;9.40;94.70;;;;;;5115662;27;20031;-74
2022/05/29 05:36:12;;;;;;;15.45;3.88;;;9.40;94.60;;;;;;5108856;27;20035;-73
2022/05/29 05:38:38;;;;;;;12.65;3.40;;;9.50;94.70;;;;;;5098892;28;20081;-74
2022/05/29 05:41:03;;;;;;;15.68;3.45;;;9.50;94.50;;;;;;5106980;28;20035;-74
2022/05/29 05:43:31;;;;;;;15.13;4.20;;;9.60;94.60;;;;;;5106076;28;20467;-74
2022/05/29 05:45:56;;;;;;;12.63;3.50;;;9.50;94.50;;;;;;5107668;28;20039;-74
2022/05/29 05:48:25;;;;;;;11.73;4.05;;;9.60;94.30;;;;;;5093958;28;20135;-74
2022/05/29 05:50:56;;;;;;;13.25;3.45;;;9.60;94.40;;;;;;5103860;28;20042;-74
2022/05/29 05:53:21;;;;;;;13.03;3.23;;;9.70;94.30;;;;;;5107080;28;20483;-75
2022/05/29 05:55:47;;;;;;;13.27;3.38;;;9.80;94.20;;;;;;5105058;28;20277;-73
2022/05/29 05:58:12;;;;;;;13.45;3.75;;;9.80;93.90;;;;;;5099522;28;20118;-73
2022/05/29 06:00:38;;;;;;;10.02;3.47;;;9.80;93.90;;;;;;5100754;28;20034;-73
2022/05/29 06:03:03;;;;;;;11.27;3.55;;;9.80;93.90;;;;;;5097409;28;20486;-72
2022/05/29 06:05:29;;;;;;;13.40;3.15;;;9.90;93.80;;;;;;5093345;28;20016;-73
2022/05/29 06:07:54;;;;;;;18.85;3.47;;;10.00;93.80;;;;;;5101749;28;20023;-73
2022/05/29 06:10:20;;;;;;;14.65;3.13;;;10.00;93.50;;;;;;5106826;28;20257;-73
2022/05/29 06:12:45;;;;;;;13.35;3.15;;;10.00;93.50;;;;;;5104515;28;20447;-73
2022/05/29 06:15:11;;;;;;;13.50;3.10;;;10.00;93.40;;;;;;5106659;28;20031;-73
2022/05/29 06:17:37;;;;;;;9.70;2.92;;;10.00;93.30;;;;;;5105293;28;20036;-73
2022/05/29 06:20:03;;;;;;;10.93;3.10;;;10.10;93.40;;;;;;5105255;28;20237;-73
2022/05/29 06:22:29;;;;;;;9.20;2.97;;;10.10;93.30;;;;;;5100494;28;20027;-73
2022/05/29 06:24:54;;;;;;;15.88;3.13;;;10.10;93.10;;;;;;5106270;28;20139;-73
2022/05/29 06:27:20;;;;;;;11.75;3.35;;;10.20;93.10;;;;;;5106348;28;20075;-73
2022/05/29 06:29:46;;;;;;;10.50;3.10;;;10.30;92.90;;;;;;5096959;28;20411;-73
2022/05/29 06:32:15;;;;;;;8.48;2.70;;;10.50;92.70;;;;;;5103052;28;20030;-73
2022/05/29 06:34:40;;;;;;;8.48;2.25;;;10.50;92.30;;;;;;5121217;27;20054;-74
2022/05/29 06:37:06;;;;;;;10.40;2.38;;;10.60;92.30;;;;;;5104962;28;20085;-73
2022/05/29 06:39:35;;;;;;;5.65;2.40;;;10.60;91.90;;;;;;5100370;28;20031;-73
2022/05/29 06:42:01;;;;;;;4.90;2.17;;;10.60;91.60;;;;;;5106587;28;20051;-73
2022/05/29 06:44:26;;;;;;;7.85;2.55;;;10.60;91.50;;;;;;5104594;28;20044;-73
2022/05/29 06:46:52;;;;;;;9.18;2.55;;;10.50;91.70;;;;;;5096861;28;20032;-73
2022/05/29 06:49:18;;;;;;;6.85;2.03;;;10.60;92.00;;;;;;5094379;28;20498;-73
2022/05/29 06:51:44;;;;;;;7.07;2.50;;;10.50;91.90;;;;;;5106138;28;20124;-73
2022/05/29 06:54:09;;;;;;;10.05;2.25;;;10.40;92.00;;;;;;5104766;28;20028;-73
2022/05/29 06:56:35;;;;;;;4.22;1.80;;;10.50;92.30;;;;;;5095425;28;20035;-73
2022/05/29 06:59:01;;;;;;;11.35;2.90;;;10.40;92.30;;;;;;5105817;28;20028;-73
2022/05/29 07:07:11;;;;;;;8.90;2.47;;;10.70;92.50;;;;;;5099320;28;20127;-74
2022/05/29 07:09:39;;;;;;;11.30;2.55;;;10.60;92.40;;;;;;5105513;28;20041;-74
2022/05/29 07:12:18;;;;;;;12.80;3.00;;;10.40;92.80;;;;;;5097367;28;20399;-74
2022/05/29 07:14:48;;;;;;;11.38;2.83;;;10.40;93.30;;;;;;5104659;28;20089;-73
2022/05/29 07:17:14;;;;;;;9.27;2.63;;;10.40;93.50;;;;;;5104236;28;20024;-74
2022/05/29 07:19:41;;;;;;;8.45;2.83;;;10.50;93.70;;;;;;5101168;28;20175;-74
2022/05/29 07:22:07;;;;;;;8.45;2.47;;;10.60;93.40;;;;;;5103876;28;20365;-74
2022/05/29 07:24:35;;;;;;;11.80;2.95;;;10.70;93.30;;;;;;5105996;28;20123;-73
2022/05/29 07:27:01;;;;;;;10.02;2.85;;;10.80;92.90;;;;;;5105679;28;20470;-74
2022/05/29 07:29:26;;;;;;;11.98;2.97;;;11.00;92.90;;;;;;5097117;28;20028;-73
2022/05/29 07:31:53;;;;;;;17.02;2.40;;;10.90;92.40;;;;;;5102113;28;20392;-74
2022/05/29 07:34:19;;;;;;;9.93;3.03;;;11.10;92.60;;;;;;5118579;28;20486;-74
2022/05/29 07:36:45;;;;;;;6.65;2.22;;;11.10;92.20;;;;;;5104644;27;20491;-74
2022/05/29 07:39:11;;;;;;;8.13;2.53;;;11.10;92.20;;;;;;5104757;28;20127;-74
2022/05/29 07:44:23;;;;;;;7.65;2.20;;;11.50;91.80;;;;;;5105096;28;20043;-73
2022/05/29 07:46:48;;;;;;;9.85;2.40;;;11.20;91.20;;;;;;5098577;28;20122;-74
2022/05/29 07:49:14;;;;;;;8.50;2.20;;;11.20;91.20;;;;;;5098700;28;20160;-74
2022/05/29 07:51:39;;;;;;;7.90;2.30;;;11.00;91.20;;;;;;5105569;28;20383;-73
2022/05/29 07:54:05;;;;;;;5.47;2.40;;;10.90;91.40;;;;;;5104064;28;20602;-73
2022/05/29 07:56:31;;;;;;;9.45;2.38;;;10.90;91.40;;;;;;5105616;28;20072;-74
2022/05/29 07:58:56;;;;;;;8.45;2.30;;;10.80;92.00;;;;;;5104778;28;20099;-73
2022/05/29 08:01:22;;;;;;;10.85;2.67;;;10.60;92.20;;;;;;5104272;28;20234;-74
2022/05/29 08:03:48;;;;;;;6.70;2.00;;;10.60;93.00;;;;;;5101284;28;20027;-73
2022/05/29 08:06:14;;;;;;;6.85;2.38;;;10.60;93.70;;;;;;5103378;28;20524;-74
2022/05/29 08:08:40;;;;;;;8.40;2.67;;;10.50;94.00;;;;;;5102429;28;20028;-74
2022/05/29 08:11:06;;;;;;;5.35;2.20;;;10.40;94.50;;;;;;5094492;28;20402;-74
2022/05/29 08:13:35;;;;;;;9.65;2.22;;;10.40;94.90;;;;;;5104957;28;20027;-74
2022/05/29 08:16:02;;;;;;;7.43;2.10;;;10.40;95.10;;;;;;5104309;28;20031;-74
2022/05/29 08:18:28;;;;;;;6.38;2.25;;;10.50;95.20;;;;;;5105079;28;20030;-74
2022/05/29 08:20:55;;;;;;;7.97;2.65;;;10.60;95.10;;;;;;5092889;28;20031;-74
2022/05/29 08:23:20;;;;;;;6.47;2.55;;;10.70;95.00;;;;;;5104620;28;20493;-74
2022/05/29 08:31:14;;;;;;;7.90;2.75;;;10.90;94.30;;;;;;5100415;28;20066;-74
2022/05/29 08:33:40;;;;;;;8.50;2.63;;;11.00;94.50;;;;;;5104300;27;20059;-74
2022/05/29 08:36:08;;;;;;;6.28;2.17;;;11.10;94.20;;;;;;5108330;28;20040;-74
2022/05/29 08:38:37;;;;;;;8.32;2.55;;;11.30;94.30;;;;;;5099263;28;20019;-74
2022/05/29 08:41:39;;;;;;;7.25;2.38;;;11.40;94.00;;;;;;5107600;28;20598;-74
2022/05/29 08:44:16;;;;;;;7.78;2.28;;;11.30;93.10;;;;;;5105088;28;20058;-74
2022/05/29 08:46:47;;;;;;;8.05;2.22;;;11.50;93.50;;;;;;5098612;28;20036;-74
2022/05/29 08:49:19;;;;;;;9.85;2.08;;;11.60;92.90;;;;;;5101280;28;21024;-74
2022/05/29 08:51:57;;;;;;;7.05;2.30;;;11.50;92.40;;;;;;5107681;28;20526;-74
2022/05/29 08:54:40;;;;;;;9.60;2.00;;;11.50;92.20;;;;;;5101227;28;20059;-74
2022/05/29 08:57:25;;;;;;;8.77;2.08;;;11.40;92.20;;;;;;5094395;28;20032;-74
2022/05/29 08:59:55;;;;;;;7.07;2.50;;;11.40;92.80;;;;;;5108216;28;20496;-74
2022/05/29 09:02:45;;;;;;;9.25;2.50;;;11.40;93.10;;;;;;5102771;28;20075;-74
2022/05/29 09:05:46;;;;;;;9.75;2.50;;;11.10;93.50;;;;;;5107569;28;20038;-74
2022/05/29 09:08:37;;;;;;;10.68;2.35;;;10.90;93.70;;;;;;5105304;28;20046;-74
2022/05/29 09:11:13;;;;;;;6.97;2.30;;;10.70;94.40;;;;;;5079022;28;20160;-74
2022/05/29 09:14:22;;;;;;;8.88;2.75;;;10.60;94.60;;;;;;5107482;28;20031;-74
2022/05/29 09:16:57;;;;;;;7.00;2.78;;;10.60;95.00;;;;;;5094931;28;20097;-72
2022/05/29 09:19:44;;;;;;;9.55;2.60;;;10.50;95.40;;;;;;5095045;28;20110;-72
2022/05/29 09:22:23;;;;;;;6.57;2.45;;;10.70;95.70;;;;;;5107110;28;20216;-72
2022/05/29 09:24:55;;;;;;;5.05;1.92;;;10.90;95.80;;;;;;5108152;28;20131;-73
2022/05/29 09:27:22;;;;;;;8.77;2.25;;;10.80;95.40;;;;;;5104431;27;20096;-72
2022/05/29 09:29:48;;;;;;;6.70;2.03;;;10.80;95.40;;;;;;5107069;28;20054;-73
2022/05/29 09:32:19;;;;;;;7.57;1.58;;;10.80;95.30;;;;;;5108163;28;20023;-73
2022/05/29 09:35:01;;;;;;;8.50;2.00;;;10.70;95.10;;;;;;5101547;28;20061;-72
2022/05/29 09:37:41;;;;;;;5.47;1.77;;;10.70;95.30;;;;;;5100425;28;20039;-72
2022/05/29 09:40:18;;;;;;;5.88;2.50;;;10.80;95.30;;;;;;5104493;28;20429;-72
2022/05/29 09:42:44;;;;;;;6.78;2.25;;;11.00;95.40;;;;;;5105929;28;20136;-72
2022/05/29 09:45:17;;;;;;;7.18;2.50;;;10.90;94.90;;;;;;5097771;28;20343;-72
2022/05/29 09:50:53;;;;;;;7.38;1.98;;;10.80;94.60;;;;;;5105825;28;20031;-72
2022/05/29 09:53:23;;;;;;;;;;;10.70;94.40;;;;;;5105977;28;20051;-73
2022/05/29 09:55:52;;;;;;;8.13;1.88;;;10.80;94.70;;;;;;5094292;28;19910;-73
2022/05/29 09:58:24;;;;;;;6.53;2.13;;;11.00;94.70;;;;;;5107396;28;20023;-73
2022/05/29 10:01:05;;;;;;;8.52;3.05;;;11.00;94.70;;;;;;5100192;28;20027;-73
2022/05/29 10:03:52;;;;;;;10.23;2.72;;;11.00;94.40;;;;;;5106285;27;20035;-73
2022/05/29 10:06:35;;;;;;;8.30;2.70;;;11.10;94.30;;;;;;5108087;28;20046;-73
2022/05/29 10:09:19;;;;;;;9.75;2.03;;;11.30;94.00;;;;;;5107164;28;20042;-73
2022/05/29 10:11:50;;;;;;;6.95;2.50;;;11.40;93.60;;;;;;5104349;28;20020;-73
2022/05/29 10:14:43;;;;;;;7.95;2.38;;;11.50;93.70;;;;;;5103732;28;20035;-73
2022/05/29 10:17:32;;;;;;;7.07;1.98;;;11.70;93.40;;;;;;5096732;28;20111;-73
2022/05/29 10:19:57;;;;;;;4.07;1.88;;;11.60;93.00;;;;;;5100914;28;20423;-74
2022/05/29 10:22:29;;;;;;;7.15;2.25;;;11.70;93.10;;;;;;5106636;28;20223;-73
2022/05/29 10:24:55;;;;;;;8.35;2.00;;;11.70;93.00;;;;;;5106840;28;20126;-73
2022/05/29 10:27:31;;;;;;;5.68;2.28;;;11.60;93.10;;;;;;5105564;28;20460;-73
2022/05/29 10:30:10;;;;;;;8.35;2.33;;;11.60;92.90;;;;;;5098692;28;20055;-73
2022/05/29 10:32:42;;;;;;;5.25;1.55;;;11.50;92.80;;;;;;5095378;28;20024;-73
2022/05/29 10:35:26;;;;;;;;;;;11.40;92.60;;;;;;5119934;27;20096;-74
2022/05/29 10:37:53;;;;;;;8.77;2.38;;;11.30;93.00;;;;;;5103580;28;20337;-73
2022/05/29 10:40:31;;;;;;;5.50;1.60;;;11.10;93.50;;;;;;5106334;28;20486;-73
2022/05/29 10:43:00;;;;;;;6.55;1.90;;;11.00;93.90;;;;;;5105676;28;20055;-73
2022/05/29 10:45:31;;;;;;;6.15;2.30;;;10.90;94.90;;;;;;5105876;28;20548;-74
2022/05/29 10:48:42;;;;;;;6.72;2.47;;;10.90;95.20;;;;;;5104602;28;20047;-73
2022/05/29 10:51:15;;;;;;;5.90;2.20;;;10.70;95.30;;;;;;5076120;28;20143;-73
2022/05/29 10:54:09;;;;;;;5.45;1.85;;;10.70;95.40;;;;;;5103866;28;20034;-74
2022/05/29 10:57:07;;;;;;;7.15;2.60;;;10.60;95.40;;;;;;5105070;28;20036;-73
2022/05/29 10:59:51;;;;;;;10.05;2.13;;;10.70;95.60;;;;;;5106222;28;20035;-74
2022/05/29 11:05:37;;;;;;;9.90;2.40;;;10.70;95.90;;;;;;5094796;28;20042;-74
2022/05/29 11:08:16;;;;;;;6.15;2.00;;;10.90;96.00;;;;;;5105388;28;20192;-73
2022/05/29 11:10:57;;;;;;;9.30;2.65;;;11.10;96.20;;;;;;5097158;28;20038;-73
2022/05/29 11:13:46;;;;;;;11.57;2.85;;;11.30;96.10;;;;;;5105240;28;20027;-74
2022/05/29 11:16:50;;;;;;;5.88;2.25;;;11.30;95.70;;;;;;5100129;28;20040;-73
2022/05/29 11:19:26;;;;;;;6.10;2.22;;;11.40;95.50;;;;;;5104437;28;20382;-73
2022/05/29 11:21:58;;;;;;;5.85;2.13;;;11.30;95.10;;;;;;5106126;28;20445;-73
2022/05/29 11:24:33;;;;;;;5.68;1.83;;;11.20;94.80;;;;;;5105828;28;20030;-73
2022/05/29 11:27:19;;;;;;;5.13;1.67;;;11.20;94.50;;;;;;5100512;28;20031;-73
2022/05/29 11:30:16;;;;;;;5.85;1.40;;;11.10;94.40;;;;;;5098464;28;20028;-74
2022/05/29 11:32:53;;;;;;;3.28;1.33;;;11.20;94.50;;;;;;5104338;28;20119;-73
2022/05/29 11:35:42;;;;;;;7.30;1.77;;;11.20;94.40;;;;;;5092332;28;20050;-73
2022/05/29 11:38:29;;;;;;;2.67;1.25;;;11.20;93.90;;;;;;5104625;28;20027;-74
2022/05/29 11:41:24;;;;;;;4.25;1.52;;;11.20;93.20;;;;;;5105678;28;20032;-75
2022/05/29 11:44:25;;;;;;;5.32;2.00;;;11.40;93.70;;;;;;5098592;28;20044;-75
2022/05/29 11:51:18;;;;;;;3.75;1.50;;;11.70;93.40;;;;;;5101563;28;20119;-73
2022/05/29 11:53:38;;;;;;;6.32;2.45;;;11.60;92.60;;;;;;5092262;28;20171;-73
2022/05/29 11:56:11;;;;;;;7.20;2.10;;;11.80;92.10;;;;;;5103950;28;20110;-73
2022/05/29 11:58:49;;;;;;;4.90;1.65;;;11.80;92.00;;;;;;5105887;28;20063;-73
2022/05/29 12:01:29;;;;;;;5.05;1.25;;;11.90;92.00;;;;;;5102450;28;20051;-73
2022/05/29 12:04:09;;;;;;;2.40;1.20;;;11.90;91.90;;;;;;5106657;28;20051;-74
2022/05/29 12:06:54;;;;;;;3.13;0.93;;;11.90;91.70;;;;;;5096992;28;20040;-73
2022/05/29 12:09:27;;;;;;;3.78;0.75;;;11.60;91.10;;;;;;5101430;28;20036;-73
2022/05/29 12:12:05;;;;;;;2.78;1.17;;;11.50;90.90;;;;;;5109310;28;20378;-73
2022/05/29 12:14:52;;;;;;;1.67;0.98;;;11.50;90.60;;;;;;5109428;28;20024;-72
2022/05/29 12:17:25;;;;;;;3.00;0.90;;;11.70;90.70;;;;;;5107315;28;20130;-72
2022/05/29 12:20:06;;;;;;;1.70;0.70;;;11.80;90.00;;;;;;5105480;27;20059;-72
2022/05/29 12:22:37;;;;;;;;;;;12.10;89.50;;;;;;5099196;28;20271;-72
2022/05/29 12:25:06;;;;;;;2.78;1.20;;;12.30;88.50;;;;;;5107044;28;20215;-72
2022/05/29 12:27:34;;;;;;;2.72;1.20;;;12.50;89.20;;;;;;5103185;28;20412;-73
2022/05/29 12:30:14;;;;;;;2.92;1.23;;;12.40;88.50;;;;;;5107880;28;20374;-72
2022/05/29 12:32:39;;;;;;;2.15;0.80;;;12.40;87.70;;;;;;5107605;27;20028;-72
2022/05/29 12:35:16;;;;;;;4.18;1.27;;;12.40;87.60;;;;;;5105783;28;20038;-72
2022/05/29 12:37:48;;;;;;;4.57;1.00;;;12.60;88.30;;;;;;5108732;28;20115;-72
2022/05/29 12:40:51;;;;;;;5.32;1.45;;;12.50;87.80;;;;;;5108512;28;20082;-73
2022/05/29 12:43:41;;;;;;;2.28;1.15;;;12.60;87.20;;;;;;5101933;28;20051;-72
2022/05/29 12:46:42;;;;;;;7.00;1.45;;;12.80;88.10;;;;;;5105184;28;20114;-72
2022/05/29 12:49:19;;;;;;;6.57;1.30;;;13.00;87.80;;;;;;5108035;28;20234;-72
2022/05/29 12:52:17;;;;;;;5.53;1.20;;;12.90;86.90;;;;;;5100591;28;20089;-72
2022/05/29 12:55:04;;;;;;;4.10;1.27;;;12.70;85.30;;;;;;5105780;27;20033;-72
2022/05/29 12:58:07;;;;;;;3.10;0.98;;;12.60;86.90;;;;;;5110174;27;20032;-72
2022/05/29 13:01:26;;;;;;;2.83;1.13;;;12.80;86.80;;;;;;5094026;28;20443;-72
2022/05/29 13:04:03;;;;;;;3.67;1.00;;;12.50;85.50;;;;;;5043269;28;20028;-72
2022/05/29 13:06:47;;;;;;;3.95;1.17;;;12.30;87.50;;;;;;5099456;28;20054;-72
2022/05/29 13:09:40;;;;;;;5.75;1.52;;;12.00;88.90;;;;;;5105465;28;20107;-73
2022/05/29 13:12:13;;;;;;;5.43;1.40;;;11.60;90.30;;;;;;5102241;28;20115;-74
2022/05/29 13:14:49;;;;;;;3.40;1.10;;;11.40;90.80;;;;;;5108468;28;20451;-75
2022/05/29 13:17:24;;;;;;;4.22;1.40;;;11.20;91.60;;;;;;5095308;28;20032;-74
2022/05/29 13:20:01;;;;;;;5.13;1.48;;;11.30;92.20;;;;;;5107484;28;20027;-72
2022/05/29 13:22:48;;;;;;;4.45;1.30;;;11.40;91.90;;;;;;5107815;28;20027;-74
2022/05/29 13:25:16;;;;;;;4.07;1.42;;;11.60;92.20;;;;;;5106292;28;20033;-74
2022/05/29 13:27:41;;;;;;;6.38;1.40;;;11.60;91.60;;;;;;5107849;28;20032;-74
2022/05/29 13:30:29;;;;;;;5.40;1.55;;;11.90;91.80;;;;;;5107726;28;20032;-73
2022/05/29 13:33:29;;;;;;;9.50;1.70;;;11.90;90.60;;;;;;5103897;27;20028;-73
2022/05/29 13:35:56;;;;;;;5.15;1.50;;;12.10;89.90;;;;;;5116031;27;20035;-74
2022/05/29 13:38:44;;;;;;;4.63;1.50;;;12.10;88.20;;;;;;5106700;28;20027;-74
2022/05/29 13:41:24;;;;;;;6.18;1.50;;;12.30;87.80;;;;;;5107578;28;20762;-74
2022/05/29 13:43:50;;;;;;;6.97;1.45;;;12.30;87.80;;;;;;5101637;28;20122;-74
2022/05/29 13:46:27;;;;;;;3.72;1.25;;;12.50;87.40;;;;;;5106905;28;20126;-74
2022/05/29 13:49:17;;;;;;;3.63;1.27;;;12.50;86.70;;;;;;5107445;28;20390;-74
2022/05/29 13:51:44;;;;;;;6.28;1.67;;;12.70;86.10;;;;;;5104718;28;20077;-74
2022/05/29 13:54:31;;;;;;;3.97;1.10;;;12.70;85.60;;;;;;5107384;28;20438;-75